Southeastern Grand Banks: Past 24 Hour Conditions

 

Natashquan Airport

04:00 PM EST 15 February 2019
Disclaimer

This table is a summary of hourly weather conditions for the past 24 hours.
Please note that these observations might not always be representative of weather conditions over their associated marine area.

Date / Time
(EST)
Wind(knots) Conditions Visibility(km) Pressure(kPa) Air tempC) Relative humidity(%) Dew pointC) Wind Chill
15 February 2019
16:00 SE 7 Cloudy 16 102.3 -6 82 -9 -12
15:00 SE 9 Cloudy 16 102.4 -6 80 -9 -13
14:00 SE 8 Cloudy 16 102.5 -7 78 -10 -13
13:00 SE 7 Cloudy 16 102.5 -7 75 -10 -12
12:00 E 7 Mostly Cloudy 16 102.5 -8 72 -13 -14
11:00 E 8 Sunny 16 102.6 -9 65 -15 -16
10:00 E 6 Sunny 16 102.5 -11 64 -17 -17
9:00 SE 3 Sunny 16 102.6 -12 64 -18 -15
8:00 NE 7 Sunny 16 102.4 -13 69 -18 -20
7:00 NE 8 Sunny 16 102.3 -14 72 -18 -22
6:00 NNE 9 Clear 16 102.2 -15 74 -18 -23
5:00 NNE 12 Clear 16 102.1 -14 73 -18 -23
4:00 NNE 10 Clear 16 102.0 -15 74 -18 -23
3:00 N 10 Clear 16 101.9 -14 73 -18 -23
2:00 NNE 11 Clear 16 101.8 -14 72 -18 -23
1:00 N 10 Cloudy 16 101.7 -13 70 -17 -21
0:00 N 9 Mostly Cloudy 16 101.6 -12 69 -17 -20
14 February 2019
23:00 N 12 gust 19 Cloudy 16 101.4 -11 66 -16 -19
22:00 N 12 gust 19 Cloudy 16 101.3 -11 61 -17 -19
21:00 N 12 Cloudy 16 101.2 -10 59 -17 -19
20:00 N 13 gust 18 Cloudy 16 101.0 -10 63 -16 -19
19:00 N 16 gust 23 Light Snow 16 100.8 -10 68 -15 -20
18:00 N 16 gust 24 Light Snow 8 100.7 -10 72 -14 -19
17:00 N 12 Light Snow 16 100.5 -9 72 -14 -18
16:00 N 15 gust 21 Light Snow 13 100.4 -9 75 -13 -18

Zoom-in to make a selection

Map of Atlantic - Newfoundland marine weather areas Banquereau - 44139 Blanc-Sablon Airport Cap Whittle Chevery Natashquan Airport Heath Point Îles de la Madeleine Airport Miscou Island Eskasoni (First Nations) Grand Étang Ingonish Beach North Mountain St.Paul Island J.A. Douglas McCurdy Sydney Airport Charlottetown Airport East Point North Cape Argentia Bonavista Burgeo Cape Race Corner Brook Daniel's Harbour Englee Ferolle Point La Scie Port aux Basques Rocky Harbour Sagona Island St. Anthony Airport St. John's Int'l Airport St. Lawrence Stephenville Airport Twillingate Winterland Wreckhouse Grates Cove Pool's Island Marticot Island Long Pond Cartwright Airport Mary's Harbour
Legend:
buoy Buoy
land station Land Station

Atlantic - Newfoundland Area

Another Region

What we are doing

Date modified: